sensor_id;sensor_type;location;lat;lon;timestamp;pressure;altitude;pressure_sealevel;temperature
61390;BMP280;47260;48.274;19.814;2022-07-29T00:01:46;99496.63;;;20.59
61390;BMP280;47260;48.274;19.814;2022-07-29T00:04:13;99494.50;;;20.49
61390;BMP280;47260;48.274;19.814;2022-07-29T00:06:39;99497.75;;;20.31
61390;BMP280;47260;48.274;19.814;2022-07-29T00:09:08;99493.03;;;20.31
61390;BMP280;47260;48.274;19.814;2022-07-29T00:11:35;99490.00;;;20.20
61390;BMP280;47260;48.274;19.814;2022-07-29T00:14:02;99491.91;;;20.10
61390;BMP280;47260;48.274;19.814;2022-07-29T00:16:28;99492.75;;;19.95
61390;BMP280;47260;48.274;19.814;2022-07-29T00:18:55;99493.50;;;19.88
61390;BMP280;47260;48.274;19.814;2022-07-29T00:21:22;99492.09;;;19.80
61390;BMP280;47260;48.274;19.814;2022-07-29T00:23:49;99486.53;;;19.70
61390;BMP280;47260;48.274;19.814;2022-07-29T00:26:17;99490.22;;;19.58
61390;BMP280;47260;48.274;19.814;2022-07-29T00:28:43;99496.22;;;19.56
61390;BMP280;47260;48.274;19.814;2022-07-29T00:31:10;99498.59;;;19.52
61390;BMP280;47260;48.274;19.814;2022-07-29T00:33:37;99492.44;;;19.52
61390;BMP280;47260;48.274;19.814;2022-07-29T00:36:04;99495.69;;;19.50
61390;BMP280;47260;48.274;19.814;2022-07-29T00:38:30;99492.66;;;19.39
61390;BMP280;47260;48.274;19.814;2022-07-29T00:40:57;99482.34;;;19.30
61390;BMP280;47260;48.274;19.814;2022-07-29T00:43:25;99483.47;;;19.19
61390;BMP280;47260;48.274;19.814;2022-07-29T00:45:52;99486.22;;;19.12
61390;BMP280;47260;48.274;19.814;2022-07-29T00:48:19;99488.44;;;19.06
61390;BMP280;47260;48.274;19.814;2022-07-29T00:50:46;99488.78;;;18.94
61390;BMP280;47260;48.274;19.814;2022-07-29T00:53:13;99484.09;;;18.87
61390;BMP280;47260;48.274;19.814;2022-07-29T00:55:39;99484.84;;;18.80
61390;BMP280;47260;48.274;19.814;2022-07-29T00:58:06;99477.97;;;18.72
61390;BMP280;47260;48.274;19.814;2022-07-29T01:00:34;99478.69;;;18.72
61390;BMP280;47260;48.274;19.814;2022-07-29T01:03:02;99478.34;;;18.68
61390;BMP280;47260;48.274;19.814;2022-07-29T01:05:29;99468.00;;;18.67
61390;BMP280;47260;48.274;19.814;2022-07-29T01:07:57;99474.53;;;18.64
61390;BMP280;47260;48.274;19.814;2022-07-29T01:10:24;99468.94;;;18.54
61390;BMP280;47260;48.274;19.814;2022-07-29T01:12:53;99468.34;;;18.56
61390;BMP280;47260;48.274;19.814;2022-07-29T01:15:20;99464.94;;;18.55
61390;BMP280;47260;48.274;19.814;2022-07-29T01:17:52;99468.19;;;18.46
61390;BMP280;47260;48.274;19.814;2022-07-29T01:20:26;99469.47;;;18.45
61390;BMP280;47260;48.274;19.814;2022-07-29T01:23:39;99473.78;;;18.33
61390;BMP280;47260;48.274;19.814;2022-07-29T01:26:34;99477.97;;;18.27
61390;BMP280;47260;48.274;19.814;2022-07-29T01:29:11;99473.97;;;18.20
61390;BMP280;47260;48.274;19.814;2022-07-29T01:31:44;99477.41;;;18.13
61390;BMP280;47260;48.274;19.814;2022-07-29T01:34:17;99480.66;;;18.04
61390;BMP280;47260;48.274;19.814;2022-07-29T01:36:48;99488.78;;;17.89
61390;BMP280;47260;48.274;19.814;2022-07-29T01:39:19;99482.34;;;17.57
61390;BMP280;47260;48.274;19.814;2022-07-29T01:41:53;99490.13;;;17.60
61390;BMP280;47260;48.274;19.814;2022-07-29T01:44:29;99480.00;;;17.61
61390;BMP280;47260;48.274;19.814;2022-07-29T01:47:00;99492.69;;;17.66
61390;BMP280;47260;48.274;19.814;2022-07-29T01:49:30;99480.31;;;17.49
61390;BMP280;47260;48.274;19.814;2022-07-29T01:52:00;99487.56;;;17.47
61390;BMP280;47260;48.274;19.814;2022-07-29T01:54:33;99482.41;;;17.36
61390;BMP280;47260;48.274;19.814;2022-07-29T01:57:01;99485.31;;;17.38
61390;BMP280;47260;48.274;19.814;2022-07-29T01:59:33;99485.13;;;17.36
61390;BMP280;47260;48.274;19.814;2022-07-29T02:02:01;99495.78;;;17.34
61390;BMP280;47260;48.274;19.814;2022-07-29T02:04:28;99482.41;;;17.36
61390;BMP280;47260;48.274;19.814;2022-07-29T02:07:00;99486.63;;;17.44
61390;BMP280;47260;48.274;19.814;2022-07-29T02:09:29;99482.44;;;17.43
61390;BMP280;47260;48.274;19.814;2022-07-29T02:11:57;99474.88;;;17.42
61390;BMP280;47260;48.274;19.814;2022-07-29T02:14:28;99481.91;;;17.45
61390;BMP280;47260;48.274;19.814;2022-07-29T02:16:59;99471.25;;;17.47
61390;BMP280;47260;48.274;19.814;2022-07-29T02:19:27;99477.75;;;17.44
61390;BMP280;47260;48.274;19.814;2022-07-29T02:21:56;99476.13;;;17.48
61390;BMP280;47260;48.274;19.814;2022-07-29T02:24:25;99474.50;;;17.53
61390;BMP280;47260;48.274;19.814;2022-07-29T02:26:55;99468.75;;;17.57
61390;BMP280;47260;48.274;19.814;2022-07-29T02:29:23;99476.03;;;17.62
61390;BMP280;47260;48.274;19.814;2022-07-29T02:31:51;99467.28;;;17.55
61390;BMP280;47260;48.274;19.814;2022-07-29T02:34:20;99468.50;;;17.39
61390;BMP280;47260;48.274;19.814;2022-07-29T02:36:48;99473.69;;;17.30
61390;BMP280;47260;48.274;19.814;2022-07-29T02:39:17;99477.28;;;17.25
61390;BMP280;47260;48.274;19.814;2022-07-29T02:41:46;99472.94;;;17.22
61390;BMP280;47260;48.274;19.814;2022-07-29T02:44:15;99471.69;;;17.23
61390;BMP280;47260;48.274;19.814;2022-07-29T02:46:46;99470.59;;;17.26
61390;BMP280;47260;48.274;19.814;2022-07-29T02:49:17;99471.44;;;17.13
61390;BMP280;47260;48.274;19.814;2022-07-29T02:51:46;99457.38;;;16.87
61390;BMP280;47260;48.274;19.814;2022-07-29T02:54:22;99470.47;;;16.75
61390;BMP280;47260;48.274;19.814;2022-07-29T02:56:51;99467.91;;;16.70
61390;BMP280;47260;48.274;19.814;2022-07-29T02:59:23;99469.88;;;16.69
61390;BMP280;47260;48.274;19.814;2022-07-29T03:01:54;99479.63;;;16.65
61390;BMP280;47260;48.274;19.814;2022-07-29T03:04:24;99471.19;;;16.76
61390;BMP280;47260;48.274;19.814;2022-07-29T03:06:55;99466.00;;;16.85
61390;BMP280;47260;48.274;19.814;2022-07-29T03:09:23;99467.81;;;16.83
61390;BMP280;47260;48.274;19.814;2022-07-29T03:11:50;99462.38;;;16.83
61390;BMP280;47260;48.274;19.814;2022-07-29T03:14:20;99453.81;;;16.71
61390;BMP280;47260;48.274;19.814;2022-07-29T03:16:49;99448.94;;;16.70
61390;BMP280;47260;48.274;19.814;2022-07-29T03:19:17;99449.84;;;16.72
61390;BMP280;47260;48.274;19.814;2022-07-29T03:21:44;99451.31;;;16.73
61390;BMP280;47260;48.274;19.814;2022-07-29T03:24:24;99452.22;;;16.76
61390;BMP280;47260;48.274;19.814;2022-07-29T03:26:51;99454.25;;;16.83
61390;BMP280;47260;48.274;19.814;2022-07-29T03:29:17;99459.09;;;16.77
61390;BMP280;47260;48.274;19.814;2022-07-29T03:31:44;99458.50;;;16.71
61390;BMP280;47260;48.274;19.814;2022-07-29T03:34:11;99457.84;;;16.78
61390;BMP280;47260;48.274;19.814;2022-07-29T03:36:38;99452.44;;;16.85
61390;BMP280;47260;48.274;19.814;2022-07-29T03:39:05;99465.63;;;16.81
61390;BMP280;47260;48.274;19.814;2022-07-29T03:41:35;99470.53;;;16.83
61390;BMP280;47260;48.274;19.814;2022-07-29T03:44:04;99460.75;;;16.80
61390;BMP280;47260;48.274;19.814;2022-07-29T03:46:33;99464.63;;;16.92
61390;BMP280;47260;48.274;19.814;2022-07-29T03:49:04;99472.72;;;17.12
61390;BMP280;47260;48.274;19.814;2022-07-29T03:51:33;99473.09;;;17.16
61390;BMP280;47260;48.274;19.814;2022-07-29T03:54:01;99468.78;;;17.28
61390;BMP280;47260;48.274;19.814;2022-07-29T03:56:28;99477.22;;;17.53
61390;BMP280;47260;48.274;19.814;2022-07-29T03:58:57;99476.19;;;17.56
61390;BMP280;47260;48.274;19.814;2022-07-29T04:01:25;99475.09;;;17.59
61390;BMP280;47260;48.274;19.814;2022-07-29T04:03:53;99479.50;;;17.77
61390;BMP280;47260;48.274;19.814;2022-07-29T04:06:20;99482.66;;;18.04
61390;BMP280;47260;48.274;19.814;2022-07-29T04:08:47;99477.97;;;18.27
61390;BMP280;47260;48.274;19.814;2022-07-29T04:11:14;99483.94;;;18.40
61390;BMP280;47260;48.274;19.814;2022-07-29T04:13:40;99473.25;;;18.50
61390;BMP280;47260;48.274;19.814;2022-07-29T04:16:09;99468.00;;;18.59
61390;BMP280;47260;48.274;19.814;2022-07-29T04:18:35;99478.88;;;18.44
61390;BMP280;47260;48.274;19.814;2022-07-29T04:21:02;99480.31;;;18.45
61390;BMP280;47260;48.274;19.814;2022-07-29T04:23:29;99475.78;;;18.70
61390;BMP280;47260;48.274;19.814;2022-07-29T04:25:57;99479.75;;;18.84
61390;BMP280;47260;48.274;19.814;2022-07-29T04:28:25;99473.47;;;19.29
61390;BMP280;47260;48.274;19.814;2022-07-29T04:30:52;99473.97;;;19.75
61390;BMP280;47260;48.274;19.814;2022-07-29T04:33:20;99466.09;;;19.86
61390;BMP280;47260;48.274;19.814;2022-07-29T04:35:47;99462.91;;;19.97
61390;BMP280;47260;48.274;19.814;2022-07-29T04:38:14;99458.56;;;20.43
61390;BMP280;47260;48.274;19.814;2022-07-29T04:40:40;99459.63;;;20.65
61390;BMP280;47260;48.274;19.814;2022-07-29T04:43:07;99468.53;;;20.83
61390;BMP280;47260;48.274;19.814;2022-07-29T04:45:34;99467.41;;;20.69
61390;BMP280;47260;48.274;19.814;2022-07-29T04:48:01;99475.34;;;20.57
61390;BMP280;47260;48.274;19.814;2022-07-29T04:50:29;99470.38;;;20.80
61390;BMP280;47260;48.274;19.814;2022-07-29T04:52:55;99470.06;;;20.93
61390;BMP280;47260;48.274;19.814;2022-07-29T04:55:22;99474.31;;;20.87
61390;BMP280;47260;48.274;19.814;2022-07-29T04:57:50;99486.53;;;20.86
61390;BMP280;47260;48.274;19.814;2022-07-29T05:00:17;99479.28;;;20.81
61390;BMP280;47260;48.274;19.814;2022-07-29T05:02:43;99470.06;;;20.76
61390;BMP280;47260;48.274;19.814;2022-07-29T05:05:10;99480.97;;;20.76
61390;BMP280;47260;48.274;19.814;2022-07-29T05:07:38;99472.31;;;20.87
61390;BMP280;47260;48.274;19.814;2022-07-29T05:10:05;99476.38;;;21.13
61390;BMP280;47260;48.274;19.814;2022-07-29T05:12:32;99480.75;;;21.16
61390;BMP280;47260;48.274;19.814;2022-07-29T05:14:59;99480.66;;;21.23
61390;BMP280;47260;48.274;19.814;2022-07-29T05:17:26;99484.94;;;21.43
61390;BMP280;47260;48.274;19.814;2022-07-29T05:19:53;99491.19;;;21.53
61390;BMP280;47260;48.274;19.814;2022-07-29T05:22:20;99494.56;;;21.97
61390;BMP280;47260;48.274;19.814;2022-07-29T05:24:48;99495.41;;;22.84
61390;BMP280;47260;48.274;19.814;2022-07-29T05:27:15;99488.38;;;22.81
61390;BMP280;47260;48.274;19.814;2022-07-29T05:29:42;99490.66;;;23.13
61390;BMP280;47260;48.274;19.814;2022-07-29T05:32:09;99480.75;;;23.57
61390;BMP280;47260;48.274;19.814;2022-07-29T05:34:36;99483.31;;;24.80
61390;BMP280;47260;48.274;19.814;2022-07-29T05:37:03;99479.84;;;25.46
61390;BMP280;47260;48.274;19.814;2022-07-29T05:39:29;99484.84;;;25.96
61390;BMP280;47260;48.274;19.814;2022-07-29T05:41:58;99479.78;;;26.15
61390;BMP280;47260;48.274;19.814;2022-07-29T05:44:24;99489.50;;;25.93
61390;BMP280;47260;48.274;19.814;2022-07-29T05:46:51;99481.97;;;25.82
61390;BMP280;47260;48.274;19.814;2022-07-29T05:49:18;99479.94;;;26.06
61390;BMP280;47260;48.274;19.814;2022-07-29T05:51:45;99480.94;;;26.24
61390;BMP280;47260;48.274;19.814;2022-07-29T05:54:13;99480.31;;;26.62
61390;BMP280;47260;48.274;19.814;2022-07-29T05:56:39;99479.69;;;27.13
61390;BMP280;47260;48.274;19.814;2022-07-29T05:59:07;99481.84;;;27.28
61390;BMP280;47260;48.274;19.814;2022-07-29T06:01:34;99480.94;;;27.65
61390;BMP280;47260;48.274;19.814;2022-07-29T06:04:05;99490.13;;;27.83
61390;BMP280;47260;48.274;19.814;2022-07-29T06:06:32;99479.78;;;28.68
61390;BMP280;47260;48.274;19.814;2022-07-29T06:08:59;99477.81;;;29.66
61390;BMP280;47260;48.274;19.814;2022-07-29T06:11:25;99473.31;;;30.07
61390;BMP280;47260;48.274;19.814;2022-07-29T06:13:52;99474.38;;;30.53
61390;BMP280;47260;48.274;19.814;2022-07-29T06:16:20;99475.88;;;31.32
61390;BMP280;47260;48.274;19.814;2022-07-29T06:18:47;99477.78;;;31.68
61390;BMP280;47260;48.274;19.814;2022-07-29T06:21:14;99480.16;;;31.78
61390;BMP280;47260;48.274;19.814;2022-07-29T06:23:41;99482.28;;;31.58
61390;BMP280;47260;48.274;19.814;2022-07-29T06:26:07;99475.19;;;31.53
61390;BMP280;47260;48.274;19.814;2022-07-29T06:28:35;99480.88;;;32.21
61390;BMP280;47260;48.274;19.814;2022-07-29T06:31:02;99481.63;;;32.24
61390;BMP280;47260;48.274;19.814;2022-07-29T06:33:30;99485.78;;;32.46
61390;BMP280;47260;48.274;19.814;2022-07-29T06:35:56;99485.53;;;32.87
61390;BMP280;47260;48.274;19.814;2022-07-29T06:38:23;99482.88;;;32.91
61390;BMP280;47260;48.274;19.814;2022-07-29T06:40:50;99483.25;;;32.80
61390;BMP280;47260;48.274;19.814;2022-07-29T06:43:31;99494.22;;;32.74
61390;BMP280;47260;48.274;19.814;2022-07-29T06:46:04;99493.63;;;32.30
61390;BMP280;47260;48.274;19.814;2022-07-29T06:48:33;99486.25;;;32.88
61390;BMP280;47260;48.274;19.814;2022-07-29T06:51:01;99489.13;;;32.66
61390;BMP280;47260;48.274;19.814;2022-07-29T06:53:30;99486.13;;;33.62
61390;BMP280;47260;48.274;19.814;2022-07-29T06:55:57;99488.75;;;32.78
61390;BMP280;47260;48.274;19.814;2022-07-29T06:58:25;99480.84;;;33.19
61390;BMP280;47260;48.274;19.814;2022-07-29T07:00:54;99478.25;;;33.82
61390;BMP280;47260;48.274;19.814;2022-07-29T07:03:21;99482.41;;;33.83
61390;BMP280;47260;48.274;19.814;2022-07-29T07:05:51;99474.66;;;33.78
61390;BMP280;47260;48.274;19.814;2022-07-29T07:08:18;99481.16;;;33.59
61390;BMP280;47260;48.274;19.814;2022-07-29T07:10:45;99478.09;;;34.37
61390;BMP280;47260;48.274;19.814;2022-07-29T07:13:12;99471.19;;;33.79
61390;BMP280;47260;48.274;19.814;2022-07-29T07:15:40;99475.03;;;33.96
61390;BMP280;47260;48.274;19.814;2022-07-29T07:18:07;99473.97;;;33.77
61390;BMP280;47260;48.274;19.814;2022-07-29T07:20:34;99465.94;;;32.34
61390;BMP280;47260;48.274;19.814;2022-07-29T07:23:02;99474.25;;;32.56
61390;BMP280;47260;48.274;19.814;2022-07-29T07:25:30;99475.00;;;31.68
61390;BMP280;47260;48.274;19.814;2022-07-29T07:27:57;99469.91;;;31.61
61390;BMP280;47260;48.274;19.814;2022-07-29T07:30:24;99471.31;;;31.62
61390;BMP280;47260;48.274;19.814;2022-07-29T07:32:50;99475.00;;;31.08
61390;BMP280;47260;48.274;19.814;2022-07-29T07:35:17;99471.47;;;32.56
61390;BMP280;47260;48.274;19.814;2022-07-29T07:37:45;99469.00;;;33.19
61390;BMP280;47260;48.274;19.814;2022-07-29T07:40:13;99469.66;;;31.96
61390;BMP280;47260;48.274;19.814;2022-07-29T07:42:40;99472.78;;;32.78
61390;BMP280;47260;48.274;19.814;2022-07-29T07:45:08;99465.84;;;33.58
61390;BMP280;47260;48.274;19.814;2022-07-29T07:47:35;99464.88;;;34.40
61390;BMP280;47260;48.274;19.814;2022-07-29T07:50:03;99459.81;;;32.87
61390;BMP280;47260;48.274;19.814;2022-07-29T07:52:30;99469.50;;;32.13
61390;BMP280;47260;48.274;19.814;2022-07-29T07:54:57;99467.44;;;32.14
61390;BMP280;47260;48.274;19.814;2022-07-29T07:57:25;99460.22;;;32.07
61390;BMP280;47260;48.274;19.814;2022-07-29T07:59:52;99463.47;;;31.35
61390;BMP280;47260;48.274;19.814;2022-07-29T08:02:18;99462.75;;;30.04
61390;BMP280;47260;48.274;19.814;2022-07-29T08:04:45;99457.16;;;30.02
61390;BMP280;47260;48.274;19.814;2022-07-29T08:07:12;99456.59;;;30.23
61390;BMP280;47260;48.274;19.814;2022-07-29T08:09:40;99449.94;;;30.12
61390;BMP280;47260;48.274;19.814;2022-07-29T08:12:07;99458.44;;;30.90
61390;BMP280;47260;48.274;19.814;2022-07-29T08:14:35;99461.63;;;31.02
61390;BMP280;47260;48.274;19.814;2022-07-29T08:17:02;99455.22;;;31.17
61390;BMP280;47260;48.274;19.814;2022-07-29T08:19:29;99446.34;;;31.21
61390;BMP280;47260;48.274;19.814;2022-07-29T08:21:55;99451.00;;;30.40
61390;BMP280;47260;48.274;19.814;2022-07-29T08:24:22;99445.72;;;30.46
61390;BMP280;47260;48.274;19.814;2022-07-29T08:27:07;99449.66;;;30.59
61390;BMP280;47260;48.274;19.814;2022-07-29T08:29:35;99454.34;;;30.37
61390;BMP280;47260;48.274;19.814;2022-07-29T08:32:02;99446.47;;;30.29
61390;BMP280;47260;48.274;19.814;2022-07-29T08:34:29;99443.09;;;30.50
61390;BMP280;47260;48.274;19.814;2022-07-29T08:36:57;99456.81;;;30.83
61390;BMP280;47260;48.274;19.814;2022-07-29T08:39:24;99455.16;;;30.96
61390;BMP280;47260;48.274;19.814;2022-07-29T08:41:51;99443.00;;;30.85
61390;BMP280;47260;48.274;19.814;2022-07-29T08:44:18;99440.00;;;31.18
61390;BMP280;47260;48.274;19.814;2022-07-29T08:46:49;99445.56;;;30.99
61390;BMP280;47260;48.274;19.814;2022-07-29T08:49:16;99447.03;;;30.45
61390;BMP280;47260;48.274;19.814;2022-07-29T08:51:43;99435.25;;;30.82
61390;BMP280;47260;48.274;19.814;2022-07-29T08:54:10;99435.16;;;31.19
61390;BMP280;47260;48.274;19.814;2022-07-29T08:56:38;99438.88;;;31.06
61390;BMP280;47260;48.274;19.814;2022-07-29T08:59:08;99426.97;;;30.45
61390;BMP280;47260;48.274;19.814;2022-07-29T09:01:37;99436.03;;;30.84
61390;BMP280;47260;48.274;19.814;2022-07-29T09:04:10;99436.53;;;31.18
61390;BMP280;47260;48.274;19.814;2022-07-29T09:06:41;99438.50;;;31.35
61390;BMP280;47260;48.274;19.814;2022-07-29T09:09:08;99433.91;;;31.02
61390;BMP280;47260;48.274;19.814;2022-07-29T09:11:35;99427.00;;;31.03
61390;BMP280;47260;48.274;19.814;2022-07-29T09:14:03;99433.75;;;31.18
61390;BMP280;47260;48.274;19.814;2022-07-29T09:16:47;99434.75;;;30.87
61390;BMP280;47260;48.274;19.814;2022-07-29T09:19:21;99427.19;;;30.90
61390;BMP280;47260;48.274;19.814;2022-07-29T09:21:48;99420.47;;;31.14
61390;BMP280;47260;48.274;19.814;2022-07-29T09:24:27;99427.84;;;31.08
61390;BMP280;47260;48.274;19.814;2022-07-29T09:26:53;99418.19;;;30.89
61390;BMP280;47260;48.274;19.814;2022-07-29T09:29:23;99413.78;;;31.21
61390;BMP280;47260;48.274;19.814;2022-07-29T09:31:51;99407.34;;;30.97
61390;BMP280;47260;48.274;19.814;2022-07-29T09:34:23;99403.66;;;31.10
61390;BMP280;47260;48.274;19.814;2022-07-29T09:36:52;99410.59;;;31.52
61390;BMP280;47260;48.274;19.814;2022-07-29T09:39:29;99405.50;;;31.45
61390;BMP280;47260;48.274;19.814;2022-07-29T09:41:57;99395.91;;;31.48
61390;BMP280;47260;48.274;19.814;2022-07-29T09:44:25;99398.59;;;31.89
61390;BMP280;47260;48.274;19.814;2022-07-29T09:46:56;99398.41;;;31.40
61390;BMP280;47260;48.274;19.814;2022-07-29T09:49:25;99408.09;;;31.39
61390;BMP280;47260;48.274;19.814;2022-07-29T09:52:08;99399.25;;;31.66
61390;BMP280;47260;48.274;19.814;2022-07-29T09:54:35;99399.00;;;31.36
61390;BMP280;47260;48.274;19.814;2022-07-29T09:57:06;99395.22;;;31.28
61390;BMP280;47260;48.274;19.814;2022-07-29T09:59:35;99391.94;;;31.55
61390;BMP280;47260;48.274;19.814;2022-07-29T10:02:11;99387.13;;;31.34
61390;BMP280;47260;48.274;19.814;2022-07-29T10:04:41;99383.94;;;31.65
61390;BMP280;47260;48.274;19.814;2022-07-29T10:07:09;99377.56;;;31.60
61390;BMP280;47260;48.274;19.814;2022-07-29T10:09:35;99383.44;;;31.49
61390;BMP280;47260;48.274;19.814;2022-07-29T10:12:07;99376.13;;;31.38
61390;BMP280;47260;48.274;19.814;2022-07-29T10:14:35;99375.47;;;31.82
61390;BMP280;47260;48.274;19.814;2022-07-29T10:17:04;99377.31;;;31.74
61390;BMP280;47260;48.274;19.814;2022-07-29T10:19:31;99368.72;;;31.89
61390;BMP280;47260;48.274;19.814;2022-07-29T10:22:02;99370.41;;;31.98
61390;BMP280;47260;48.274;19.814;2022-07-29T10:24:31;99367.97;;;31.87
61390;BMP280;47260;48.274;19.814;2022-07-29T10:26:59;99359.41;;;32.02
61390;BMP280;47260;48.274;19.814;2022-07-29T10:29:27;99363.19;;;32.36
61390;BMP280;47260;48.274;19.814;2022-07-29T10:32:21;99357.81;;;32.19
61390;BMP280;47260;48.274;19.814;2022-07-29T10:38:27;99355.50;;;32.35
61390;BMP280;47260;48.274;19.814;2022-07-29T10:41:06;99356.59;;;32.77
61390;BMP280;47260;48.274;19.814;2022-07-29T10:43:59;99353.34;;;33.12
61390;BMP280;47260;48.274;19.814;2022-07-29T10:46:27;99345.59;;;33.08
61390;BMP280;47260;48.274;19.814;2022-07-29T10:49:08;99351.16;;;32.53
61390;BMP280;47260;48.274;19.814;2022-07-29T10:51:55;99351.03;;;32.24
61390;BMP280;47260;48.274;19.814;2022-07-29T10:54:49;99330.16;;;32.48
61390;BMP280;47260;48.274;19.814;2022-07-29T10:57:20;99341.00;;;32.15
61390;BMP280;47260;48.274;19.814;2022-07-29T10:59:48;99351.78;;;31.79
61390;BMP280;47260;48.274;19.814;2022-07-29T11:02:40;99355.28;;;31.80
61390;BMP280;47260;48.274;19.814;2022-07-29T11:05:08;99335.59;;;32.19
61390;BMP280;47260;48.274;19.814;2022-07-29T11:07:36;99343.38;;;32.50
61390;BMP280;47260;48.274;19.814;2022-07-29T11:10:25;99334.50;;;32.81
61390;BMP280;47260;48.274;19.814;2022-07-29T11:12:52;99325.13;;;32.96
61390;BMP280;47260;48.274;19.814;2022-07-29T11:15:20;99324.38;;;33.23
61390;BMP280;47260;48.274;19.814;2022-07-29T11:18:04;99315.50;;;33.60
61390;BMP280;47260;48.274;19.814;2022-07-29T11:20:33;99322.94;;;32.92
61390;BMP280;47260;48.274;19.814;2022-07-29T11:23:00;99317.81;;;32.81
61390;BMP280;47260;48.274;19.814;2022-07-29T11:25:28;99315.31;;;32.65
61390;BMP280;47260;48.274;19.814;2022-07-29T11:28:09;99326.41;;;32.38
61390;BMP280;47260;48.274;19.814;2022-07-29T11:30:51;99317.16;;;32.57
61390;BMP280;47260;48.274;19.814;2022-07-29T11:33:28;99313.56;;;32.80
61390;BMP280;47260;48.274;19.814;2022-07-29T11:36:09;99301.88;;;33.13
61390;BMP280;47260;48.274;19.814;2022-07-29T11:38:37;99293.34;;;33.34
61390;BMP280;47260;48.274;19.814;2022-07-29T11:41:22;99297.88;;;33.51
61390;BMP280;47260;48.274;19.814;2022-07-29T11:43:50;99293.31;;;33.66
61390;BMP280;47260;48.274;19.814;2022-07-29T11:49:00;99281.19;;;33.85
61390;BMP280;47260;48.274;19.814;2022-07-29T11:51:28;99278.66;;;33.99
61390;BMP280;47260;48.274;19.814;2022-07-29T11:53:56;99282.88;;;33.98
61390;BMP280;47260;48.274;19.814;2022-07-29T11:56:25;99274.63;;;34.06
61390;BMP280;47260;48.274;19.814;2022-07-29T11:59:03;99283.00;;;33.70
61390;BMP280;47260;48.274;19.814;2022-07-29T12:01:30;99281.72;;;33.46
61390;BMP280;47260;48.274;19.814;2022-07-29T12:04:02;99275.84;;;33.00
61390;BMP280;47260;48.274;19.814;2022-07-29T12:06:29;99276.16;;;32.57
61390;BMP280;47260;48.274;19.814;2022-07-29T12:08:56;99274.41;;;32.70
61390;BMP280;47260;48.274;19.814;2022-07-29T12:11:24;99269.94;;;32.86
61390;BMP280;47260;48.274;19.814;2022-07-29T12:13:52;99266.06;;;32.70
61390;BMP280;47260;48.274;19.814;2022-07-29T12:16:19;99259.41;;;32.81
61390;BMP280;47260;48.274;19.814;2022-07-29T12:18:54;99260.28;;;32.89
61390;BMP280;47260;48.274;19.814;2022-07-29T12:21:21;99260.91;;;32.86
61390;BMP280;47260;48.274;19.814;2022-07-29T12:23:52;99252.88;;;32.70
61390;BMP280;47260;48.274;19.814;2022-07-29T12:26:19;99250.59;;;32.63
61390;BMP280;47260;48.274;19.814;2022-07-29T12:28:47;99249.06;;;32.85
61390;BMP280;47260;48.274;19.814;2022-07-29T12:31:15;99249.09;;;33.17
61390;BMP280;47260;48.274;19.814;2022-07-29T12:33:42;99251.88;;;32.87
61390;BMP280;47260;48.274;19.814;2022-07-29T12:36:10;99249.91;;;32.64
61390;BMP280;47260;48.274;19.814;2022-07-29T12:38:40;99242.28;;;32.65
61390;BMP280;47260;48.274;19.814;2022-07-29T12:41:08;99242.41;;;32.69
61390;BMP280;47260;48.274;19.814;2022-07-29T12:43:35;99240.94;;;32.66
61390;BMP280;47260;48.274;19.814;2022-07-29T12:46:15;99232.69;;;32.70
61390;BMP280;47260;48.274;19.814;2022-07-29T12:48:43;99230.84;;;32.80
61390;BMP280;47260;48.274;19.814;2022-07-29T12:51:10;99225.38;;;32.55
61390;BMP280;47260;48.274;19.814;2022-07-29T12:53:39;99220.59;;;32.87
61390;BMP280;47260;48.274;19.814;2022-07-29T12:56:06;99216.38;;;33.15
61390;BMP280;47260;48.274;19.814;2022-07-29T12:58:41;99223.00;;;33.32
61390;BMP280;47260;48.274;19.814;2022-07-29T13:01:12;99224.53;;;32.78
61390;BMP280;47260;48.274;19.814;2022-07-29T13:03:48;99225.53;;;32.61
61390;BMP280;47260;48.274;19.814;2022-07-29T13:06:36;99208.97;;;32.67
61390;BMP280;47260;48.274;19.814;2022-07-29T13:09:07;99217.78;;;32.57
61390;BMP280;47260;48.274;19.814;2022-07-29T13:11:37;99235.56;;;32.19
61390;BMP280;47260;48.274;19.814;2022-07-29T13:14:05;99221.09;;;31.50
61390;BMP280;47260;48.274;19.814;2022-07-29T13:16:34;99218.44;;;31.54
61390;BMP280;47260;48.274;19.814;2022-07-29T13:19:08;99225.06;;;31.43
61390;BMP280;47260;48.274;19.814;2022-07-29T13:21:36;99215.69;;;31.32
61390;BMP280;47260;48.274;19.814;2022-07-29T13:24:03;99241.28;;;31.07
61390;BMP280;47260;48.274;19.814;2022-07-29T13:26:31;99234.19;;;31.02
61390;BMP280;47260;48.274;19.814;2022-07-29T13:28:57;99229.34;;;30.81
61390;BMP280;47260;48.274;19.814;2022-07-29T13:31:24;99217.84;;;30.89
61390;BMP280;47260;48.274;19.814;2022-07-29T13:33:53;99233.50;;;30.80
61390;BMP280;47260;48.274;19.814;2022-07-29T13:36:19;99228.81;;;30.85
61390;BMP280;47260;48.274;19.814;2022-07-29T13:38:46;99226.06;;;30.87
61390;BMP280;47260;48.274;19.814;2022-07-29T13:41:13;99216.16;;;30.80
61390;BMP280;47260;48.274;19.814;2022-07-29T13:43:40;99230.13;;;30.84
61390;BMP280;47260;48.274;19.814;2022-07-29T13:46:06;99215.16;;;30.93
61390;BMP280;47260;48.274;19.814;2022-07-29T13:48:33;99214.97;;;31.08
61390;BMP280;47260;48.274;19.814;2022-07-29T13:51:01;99221.53;;;31.19
61390;BMP280;47260;48.274;19.814;2022-07-29T13:53:28;99207.00;;;31.42
61390;BMP280;47260;48.274;19.814;2022-07-29T13:55:55;99212.72;;;31.48
61390;BMP280;47260;48.274;19.814;2022-07-29T13:58:22;99196.00;;;31.46
61390;BMP280;47260;48.274;19.814;2022-07-29T14:00:48;99206.81;;;31.59
61390;BMP280;47260;48.274;19.814;2022-07-29T14:03:15;99204.97;;;31.68
61390;BMP280;47260;48.274;19.814;2022-07-29T14:05:42;99200.53;;;31.35
61390;BMP280;47260;48.274;19.814;2022-07-29T14:08:10;99200.84;;;31.45
61390;BMP280;47260;48.274;19.814;2022-07-29T14:10:37;99201.50;;;31.44
61390;BMP280;47260;48.274;19.814;2022-07-29T14:13:04;99195.81;;;31.40
61390;BMP280;47260;48.274;19.814;2022-07-29T14:15:30;99198.84;;;31.24